createdAt,value
2019-04-25T00:00:47.217Z,12.83
2019-04-25T00:03:19.889Z,13.60
2019-04-25T00:05:52.195Z,8.87
2019-04-25T00:08:23.466Z,15.83
2019-04-25T00:10:54.156Z,10.87
2019-04-25T00:13:25.355Z,11.37
2019-04-25T00:15:56.029Z,15.80
2019-04-25T00:18:26.705Z,10.33
2019-04-25T00:21:01.737Z,8.53
2019-04-25T00:23:32.604Z,10.60
2019-04-25T00:26:07.881Z,11.67
2019-04-25T00:28:38.647Z,8.33
2019-04-25T00:31:09.632Z,8.23
2019-04-25T00:33:41.998Z,10.20
2019-04-25T00:36:14.021Z,8.70
2019-04-25T00:38:47.013Z,7.07
2019-04-25T00:41:17.295Z,10.00
2019-04-25T00:43:49.605Z,6.50
2019-04-25T00:46:22.568Z,6.23
2019-04-25T00:48:53.340Z,7.30
2019-04-25T00:51:24.179Z,9.73
2019-04-25T00:53:55.079Z,3.60
2019-04-25T00:56:25.766Z,3.37
2019-04-25T00:59:02.018Z,5.00
2019-04-25T01:01:41.371Z,8.30
2019-04-25T01:04:13.676Z,6.47
2019-04-25T01:06:44.326Z,5.43
2019-04-25T01:09:18.568Z,6.87
2019-04-25T01:11:50.022Z,5.87
2019-04-25T01:14:21.814Z,4.67
2019-04-25T01:16:53.846Z,5.23
2019-04-25T01:19:25.146Z,4.87
2019-04-25T01:21:57.214Z,7.90
2019-04-25T01:24:28.520Z,5.33
2019-04-25T01:26:59.573Z,5.20
2019-04-25T01:29:30.238Z,8.07
2019-04-25T01:32:03.234Z,6.37
2019-04-25T01:34:44.177Z,3.67
2019-04-25T01:37:25.854Z,4.90
2019-04-25T01:39:58.576Z,4.33
2019-04-25T01:42:34.593Z,4.40
2019-04-25T01:45:08.421Z,6.07
2019-04-25T01:47:39.362Z,4.77
2019-04-25T01:50:10.148Z,3.00
2019-04-25T01:52:40.953Z,5.60
2019-04-25T01:55:13.436Z,6.13
2019-04-25T01:57:45.425Z,6.63
2019-04-25T02:00:19.025Z,5.83
2019-04-25T02:02:51.024Z,6.27
2019-04-25T02:05:22.022Z,4.87
2019-04-25T02:07:53.449Z,5.03
2019-04-25T02:10:25.908Z,6.40
2019-04-25T02:13:15.620Z,3.40
2019-04-25T02:15:47.387Z,4.00
2019-04-25T02:18:18.424Z,4.03
2019-04-25T02:20:49.195Z,5.73
2019-04-25T02:23:20.194Z,4.67
2019-04-25T02:26:03.431Z,4.40
2019-04-25T02:28:24.001Z,4.17
2019-04-25T02:30:58.886Z,6.77
2019-04-25T02:33:28.119Z,6.20
2019-04-25T02:36:01.048Z,7.23
2019-04-25T02:38:34.014Z,4.40
2019-04-25T02:41:08.437Z,8.40
2019-04-25T02:43:38.973Z,4.37
2019-04-25T02:46:24.808Z,5.67
2019-04-25T02:49:07.688Z,5.60
2019-04-25T02:51:37.142Z,5.50
2019-04-25T02:54:08.243Z,5.07
2019-04-25T02:56:39.361Z,6.30
2019-04-25T02:59:10.214Z,3.30
2019-04-25T03:01:41.292Z,5.63
2019-04-25T03:04:14.238Z,8.43
2019-04-25T03:06:45.178Z,3.80
2019-04-25T03:09:16.322Z,5.53
2019-04-25T03:11:47.706Z,4.70
2019-04-25T03:14:18.711Z,4.93
2019-04-25T03:16:49.392Z,5.20
2019-04-25T03:19:39.474Z,6.27
2019-04-25T03:22:15.279Z,5.00
2019-04-25T03:24:46.526Z,4.60
2019-04-25T03:27:17.299Z,4.20
2019-04-25T03:29:47.944Z,4.03
2019-04-25T03:32:20.154Z,3.17
2019-04-25T03:34:51.381Z,3.00
2019-04-25T03:37:23.420Z,4.57
2019-04-25T03:39:54.591Z,6.23
2019-04-25T03:42:25.259Z,4.17
2019-04-25T03:44:56.193Z,3.30
2019-04-25T03:47:27.123Z,4.57
2019-04-25T03:49:57.775Z,6.30
2019-04-25T03:52:29.366Z,8.60
2019-04-25T03:55:02.362Z,3.80
2019-04-25T03:57:33.567Z,4.77
2019-04-25T04:00:06.535Z,5.90
2019-04-25T04:02:38.060Z,3.80
2019-04-25T04:05:09.621Z,3.07
2019-04-25T04:07:40.349Z,5.27
2019-04-25T04:10:12.597Z,5.50
2019-04-25T04:12:44.409Z,4.37
2019-04-25T04:15:15.974Z,2.97
2019-04-25T04:17:48.694Z,5.90
2019-04-25T04:20:19.433Z,3.27
2019-04-25T04:23:07.216Z,4.23
2019-04-25T04:25:39.646Z,4.03
2019-04-25T04:28:10.324Z,4.43
2019-04-25T04:30:43.603Z,5.03
2019-04-25T04:33:26.698Z,4.93
2019-04-25T04:35:46.940Z,5.13
2019-04-25T04:38:18.122Z,5.53
2019-04-25T04:40:48.926Z,5.30
2019-04-25T04:43:19.892Z,5.20
2019-04-25T04:45:50.729Z,7.97
2019-04-25T04:48:23.166Z,6.63
2019-04-25T04:50:53.940Z,9.07
2019-04-25T04:53:24.633Z,4.93
2019-04-25T04:55:55.407Z,25.47
2019-04-25T04:58:26.486Z,75.43
2019-04-25T05:00:57.601Z,7.23
2019-04-25T05:03:46.221Z,4.90
2019-04-25T05:06:27.386Z,4.93
2019-04-25T05:08:59.735Z,4.70
2019-04-25T05:11:31.607Z,5.90
2019-04-25T05:14:03.946Z,5.50
2019-04-25T05:16:34.793Z,6.57
2019-04-25T05:19:05.879Z,3.13
2019-04-25T05:21:36.851Z,7.83
2019-04-25T05:24:08.538Z,6.33
2019-04-25T05:26:40.203Z,3.00
2019-04-25T05:29:10.955Z,4.33
2019-04-25T05:31:45.914Z,4.37
2019-04-25T05:34:17.251Z,5.57
2019-04-25T05:36:49.918Z,7.10
2019-04-25T05:39:20.615Z,6.33
2019-04-25T05:42:08.894Z,5.03
2019-04-25T05:44:39.876Z,4.07
2019-04-25T05:47:10.646Z,5.50
2019-04-25T05:49:41.649Z,4.23
2019-04-25T05:52:13.877Z,4.63
2019-04-25T05:54:45.101Z,3.87
2019-04-25T05:57:16.635Z,5.03
2019-04-25T05:59:48.336Z,4.60
2019-04-25T06:02:19.501Z,3.73
2019-04-25T06:04:50.321Z,4.10
2019-04-25T06:07:21.496Z,3.63
2019-04-25T06:09:56.942Z,4.80
2019-04-25T06:12:33.534Z,3.50
2019-04-25T06:15:07.244Z,2.77
2019-04-25T06:17:39.550Z,4.43
2019-04-25T06:20:13.427Z,4.53
2019-04-25T06:22:48.582Z,4.33
2019-04-25T06:25:21.814Z,2.90
2019-04-25T06:27:59.223Z,2.47
2019-04-25T06:30:31.722Z,3.70
2019-04-25T06:33:03.349Z,5.20
2019-04-25T06:35:35.907Z,4.73
2019-04-25T06:38:07.071Z,1.97
2019-04-25T06:40:38.006Z,3.73
2019-04-25T06:43:09.056Z,3.50
2019-04-25T06:45:41.376Z,3.73
2019-04-25T06:48:14.031Z,3.27
2019-04-25T06:50:44.758Z,3.47
2019-04-25T06:53:15.803Z,3.67
2019-04-25T06:55:47.874Z,4.90
2019-04-25T06:58:18.546Z,3.87
2019-04-25T07:00:58.006Z,2.83
2019-04-25T07:03:23.351Z,2.40
2019-04-25T07:05:55.205Z,2.87
2019-04-25T07:08:26.927Z,5.87
2019-04-25T07:10:59.338Z,3.20
2019-04-25T07:13:30.474Z,2.60
2019-04-25T07:16:03.066Z,4.73
2019-04-25T07:18:37.260Z,3.27
2019-04-25T07:21:08.610Z,3.43
2019-04-25T07:23:40.468Z,2.90
2019-04-25T07:26:13.763Z,3.33
2019-04-25T07:29:03.309Z,3.00
2019-04-25T07:31:56.898Z,3.03
2019-04-25T07:34:30.513Z,3.03
2019-04-25T07:37:03.423Z,3.27
2019-04-25T07:39:35.574Z,3.43
2019-04-25T07:42:07.260Z,2.13
2019-04-25T07:44:49.727Z,3.47
2019-04-25T07:47:10.606Z,4.20
2019-04-25T07:49:41.305Z,3.10
2019-04-25T07:52:13.604Z,2.13
2019-04-25T07:54:44.772Z,2.83
2019-04-25T07:57:15.693Z,2.47
2019-04-25T07:59:46.734Z,1.77
2019-04-25T08:02:17.419Z,3.23
2019-04-25T08:04:48.414Z,3.93
2019-04-25T08:07:19.356Z,2.03
2019-04-25T08:09:50.416Z,2.47
2019-04-25T08:12:21.773Z,3.30
2019-04-25T08:15:04.048Z,1.87
2019-04-25T08:17:45.232Z,1.77
2019-04-25T08:20:17.684Z,1.50
2019-04-25T08:22:55.705Z,2.43
2019-04-25T08:25:23.407Z,1.30
2019-04-25T08:27:55.227Z,4.23
2019-04-25T08:30:26.024Z,3.20
2019-04-25T08:32:56.772Z,1.13
2019-04-25T08:35:27.453Z,2.23
2019-04-25T08:37:58.363Z,1.77
2019-04-25T08:40:31.648Z,1.47
2019-04-25T08:43:03.527Z,2.20
2019-04-25T08:45:35.710Z,3.83
2019-04-25T08:48:07.307Z,1.80
2019-04-25T08:50:41.060Z,1.67
2019-04-25T08:53:13.650Z,1.57
2019-04-25T08:55:46.200Z,2.87
2019-04-25T08:58:36.922Z,2.00
2019-04-25T09:01:13.706Z,1.00
2019-04-25T09:03:47.365Z,1.70
2019-04-25T09:06:18.281Z,1.97
2019-04-25T09:08:49.315Z,1.97
2019-04-25T09:11:19.948Z,2.03
2019-04-25T09:13:51.637Z,2.27
2019-04-25T09:16:23.952Z,1.97
2019-04-25T09:18:54.699Z,2.43
2019-04-25T09:21:25.704Z,3.47
2019-04-25T09:23:56.397Z,2.03
2019-04-25T09:26:29.043Z,1.30
2019-04-25T09:29:16.340Z,1.40
2019-04-25T09:31:37.522Z,1.07
2019-04-25T09:34:08.627Z,2.60
2019-04-25T09:36:39.941Z,1.33
2019-04-25T09:39:13.598Z,3.40
2019-04-25T09:41:45.018Z,2.40
2019-04-25T09:44:17.606Z,3.63
2019-04-25T09:46:48.313Z,2.00
2019-04-25T09:49:20.910Z,2.07
2019-04-25T09:51:59.160Z,1.80
2019-04-25T09:54:36.154Z,2.47
2019-04-25T09:57:27.372Z,1.23
2019-04-25T09:59:58.327Z,2.40
2019-04-25T10:02:29.854Z,1.53
2019-04-25T10:05:00.840Z,2.27
2019-04-25T10:07:32.584Z,1.10
2019-04-25T10:10:03.802Z,2.00
2019-04-25T10:12:35.267Z,1.53
2019-04-25T10:15:26.193Z,2.40
2019-04-25T10:17:57.222Z,1.80
2019-04-25T10:20:27.972Z,0.83
2019-04-25T10:22:58.626Z,1.30
2019-04-25T10:25:29.717Z,1.87
2019-04-25T10:28:00.651Z,1.57
2019-04-25T10:30:31.942Z,2.00
2019-04-25T10:33:04.088Z,1.33
2019-04-25T10:35:46.697Z,1.33
2019-04-25T10:38:08.310Z,0.90
2019-04-25T10:40:39.343Z,2.50
2019-04-25T10:43:10.503Z,2.63
2019-04-25T10:45:42.346Z,1.47
2019-04-25T10:48:13.727Z,1.27
2019-04-25T10:50:45.916Z,1.60
2019-04-25T10:53:17.271Z,1.50
2019-04-25T10:55:48.560Z,2.67
2019-04-25T10:58:20.634Z,2.73
2019-04-25T11:00:53.059Z,1.87
2019-04-25T11:03:28.061Z,2.83
2019-04-25T11:05:58.786Z,1.57
2019-04-25T11:08:29.453Z,1.10
2019-04-25T11:11:00.312Z,1.40
2019-04-25T11:13:31.384Z,0.90
2019-04-25T11:16:03.490Z,2.17
2019-04-25T11:18:34.278Z,1.63
2019-04-25T11:21:06.033Z,3.13
2019-04-25T11:23:40.531Z,1.70
2019-04-25T11:26:11.503Z,1.87
2019-04-25T11:28:45.271Z,3.40
2019-04-25T11:31:17.456Z,2.53
2019-04-25T11:33:48.418Z,1.87
2019-04-25T11:36:19.067Z,1.27
2019-04-25T11:38:54.298Z,3.00
2019-04-25T11:41:25.504Z,2.00
2019-04-25T11:43:56.794Z,1.80
2019-04-25T11:46:28.463Z,0.60
2019-04-25T11:49:00.120Z,0.90
2019-04-25T11:51:31.110Z,1.90
2019-04-25T11:54:03.503Z,1.17
2019-04-25T11:56:34.556Z,1.40
2019-04-25T11:59:05.396Z,0.67
2019-04-25T12:01:36.668Z,0.90
2019-04-25T12:04:07.873Z,1.67
2019-04-25T12:06:38.562Z,2.07
2019-04-25T12:09:09.636Z,1.63
2019-04-25T12:11:41.360Z,2.20
2019-04-25T12:14:12.066Z,1.40
2019-04-25T12:16:46.150Z,2.10
2019-04-25T12:19:15.454Z,1.30
2019-04-25T12:21:46.394Z,1.40
2019-04-25T12:24:17.069Z,5.03
2019-04-25T12:26:48.718Z,1.37
2019-04-25T12:29:19.872Z,1.50
2019-04-25T12:31:50.885Z,1.37
2019-04-25T12:34:21.908Z,0.97
2019-04-25T12:36:54.425Z,1.60
2019-04-25T12:39:25.541Z,0.70
2019-04-25T12:41:57.058Z,1.00
2019-04-25T12:44:43.450Z,1.00
2019-04-25T12:47:19.112Z,2.93
2019-04-25T12:49:50.615Z,2.17
2019-04-25T12:52:21.348Z,2.43
2019-04-25T12:54:54.024Z,1.37
2019-04-25T12:57:25.013Z,1.53
2019-04-25T12:59:55.667Z,2.20
2019-04-25T13:02:26.465Z,2.00
2019-04-25T13:04:57.129Z,0.90
2019-04-25T13:07:28.078Z,2.63
2019-04-25T13:09:58.813Z,1.10
2019-04-25T13:12:29.846Z,2.00
2019-04-25T13:15:00.514Z,1.10
2019-04-25T13:17:31.723Z,1.23
2019-04-25T13:20:04.057Z,4.43
2019-04-25T13:22:35.234Z,1.30
2019-04-25T13:25:07.065Z,3.17
2019-04-25T13:27:45.408Z,2.57
2019-04-25T13:30:16.448Z,1.10
2019-04-25T13:33:05.245Z,0.80
2019-04-25T13:35:44.030Z,1.87
2019-04-25T13:38:15.093Z,3.30
2019-04-25T13:40:45.811Z,2.10
2019-04-25T13:43:16.860Z,1.33
2019-04-25T13:45:47.925Z,1.00
2019-04-25T13:48:19.877Z,2.03
2019-04-25T13:50:50.818Z,1.33
2019-04-25T13:53:21.444Z,4.07
2019-04-25T13:55:52.598Z,2.70
2019-04-25T13:58:25.485Z,1.23
2019-04-25T14:00:56.542Z,2.87
2019-04-25T14:03:29.415Z,2.70
2019-04-25T14:06:00.060Z,1.10
2019-04-25T14:08:31.524Z,1.80
2019-04-25T14:11:04.940Z,1.53
2019-04-25T14:13:35.128Z,1.13
2019-04-25T14:16:09.483Z,1.53
2019-04-25T14:18:57.951Z,2.43
2019-04-25T14:21:29.281Z,2.93
2019-04-25T14:24:00.104Z,3.00
2019-04-25T14:26:31.485Z,1.10
2019-04-25T14:29:04.122Z,3.27
2019-04-25T14:31:44.903Z,1.83
2019-04-25T14:34:07.988Z,2.43
2019-04-25T14:36:38.991Z,2.50
2019-04-25T14:39:11.381Z,1.33
2019-04-25T14:41:42.285Z,1.07
2019-04-25T14:44:13.286Z,2.07
2019-04-25T14:46:44.430Z,2.73
2019-04-25T14:49:15.122Z,1.30
2019-04-25T14:51:46.202Z,1.67
2019-04-25T14:54:18.541Z,4.53
2019-04-25T14:56:50.848Z,1.83
2019-04-25T14:59:23.037Z,3.43
2019-04-25T15:01:54.044Z,3.00
2019-04-25T15:04:24.714Z,1.20
2019-04-25T15:06:55.718Z,2.30
2019-04-25T15:09:26.859Z,1.27
2019-04-25T15:11:57.905Z,1.67
2019-04-25T15:14:29.297Z,2.03
2019-04-25T15:17:00.008Z,2.33
2019-04-25T15:19:31.867Z,3.63
2019-04-25T15:22:02.776Z,2.10
2019-04-25T15:24:34.702Z,2.63
2019-04-25T15:27:06.207Z,1.00
2019-04-25T15:29:36.914Z,1.90
2019-04-25T15:32:09.525Z,1.20
2019-04-25T15:34:42.090Z,2.50
2019-04-25T15:37:14.700Z,1.27
2019-04-25T15:39:50.207Z,2.80
2019-04-25T15:42:22.517Z,2.90
2019-04-25T15:45:10.650Z,3.03
2019-04-25T15:47:41.666Z,5.73
2019-04-25T15:50:13.008Z,4.10
2019-04-25T15:52:44.982Z,3.80
2019-04-25T15:55:16.131Z,3.77
2019-04-25T15:57:47.161Z,5.17
2019-04-25T16:00:20.538Z,1.87
2019-04-25T16:02:51.494Z,1.47
2019-04-25T16:05:22.441Z,2.83
2019-04-25T16:07:54.500Z,3.13
2019-04-25T16:10:25.842Z,1.73
2019-04-25T16:12:56.787Z,2.13
2019-04-25T16:15:27.835Z,2.27
2019-04-25T16:17:58.762Z,3.97
2019-04-25T16:20:29.575Z,2.20
2019-04-25T16:23:00.381Z,4.23
2019-04-25T16:25:33.317Z,7.30
2019-04-25T16:28:04.595Z,7.47
2019-04-25T16:30:36.487Z,5.80
2019-04-25T16:33:07.447Z,6.53
2019-04-25T16:35:38.104Z,5.73
2019-04-25T16:38:10.070Z,6.30
2019-04-25T16:40:40.757Z,7.30
2019-04-25T16:43:13.771Z,8.40
2019-04-25T16:45:46.328Z,6.30
2019-04-25T16:48:19.557Z,8.37
2019-04-25T16:50:50.225Z,6.93
2019-04-25T16:53:21.243Z,8.83
2019-04-25T16:55:51.912Z,7.90
2019-04-25T16:58:23.413Z,6.80
2019-04-25T17:00:55.822Z,8.90
2019-04-25T17:03:31.214Z,5.93
2019-04-25T17:06:02.201Z,9.10
2019-04-25T17:08:33.220Z,6.13
2019-04-25T17:11:04.674Z,5.53
2019-04-25T17:13:37.907Z,7.50
2019-04-25T17:16:13.031Z,6.87
2019-04-25T17:18:54.386Z,6.17
2019-04-25T17:21:25.434Z,6.73
2019-04-25T17:23:57.218Z,5.30
2019-04-25T17:26:28.417Z,10.77
2019-04-25T17:29:00.742Z,6.50
2019-04-25T17:31:45.277Z,6.30
2019-04-25T17:34:35.104Z,6.43
2019-04-25T17:37:14.785Z,8.93
2019-04-25T17:39:47.557Z,5.57
2019-04-25T17:42:19.081Z,6.00
2019-04-25T17:44:49.888Z,7.43
2019-04-25T17:47:22.937Z,7.93
2019-04-25T17:49:55.044Z,6.83
2019-04-25T17:52:26.026Z,5.53
2019-04-25T17:54:58.322Z,6.90
2019-04-25T17:57:29.343Z,10.33
2019-04-25T18:00:00.861Z,7.27
2019-04-25T18:02:35.019Z,6.80
2019-04-25T18:05:06.629Z,6.73
2019-04-25T18:07:39.042Z,7.23
2019-04-25T18:10:16.416Z,8.93
2019-04-25T18:12:47.481Z,8.27
2019-04-25T18:15:22.107Z,7.67
2019-04-25T18:17:52.963Z,7.87
2019-04-25T18:20:26.463Z,7.33
2019-04-25T18:23:01.773Z,10.53
2019-04-25T18:25:35.926Z,11.63
2019-04-25T18:28:14.929Z,7.93
2019-04-25T18:30:47.292Z,9.43
2019-04-25T18:33:20.485Z,7.40
2019-04-25T18:36:09.148Z,10.30
2019-04-25T18:38:50.552Z,9.97
2019-04-25T18:41:23.137Z,8.23
2019-04-25T18:43:55.742Z,10.03
2019-04-25T18:46:31.023Z,10.20
2019-04-25T18:49:02.066Z,7.37
2019-04-25T18:51:33.205Z,7.63
2019-04-25T18:54:10.104Z,13.90
2019-04-25T18:56:59.195Z,10.70
2019-04-25T18:59:44.053Z,8.63
2019-04-25T19:02:29.739Z,10.30
2019-04-25T19:05:14.551Z,8.90
2019-04-25T19:07:45.620Z,9.43
2019-04-25T19:10:16.503Z,9.07
2019-04-25T19:12:47.581Z,8.33
2019-04-25T19:15:18.384Z,10.30
2019-04-25T19:17:49.366Z,7.63
2019-04-25T19:20:20.708Z,9.00
2019-04-25T19:22:52.643Z,9.40
2019-04-25T19:25:23.822Z,8.93
2019-04-25T19:27:54.843Z,6.90
2019-04-25T19:30:26.209Z,9.23
2019-04-25T19:32:56.882Z,7.30
2019-04-25T19:35:27.879Z,7.43
2019-04-25T19:37:59.171Z,6.40
2019-04-25T19:40:37.329Z,8.57
2019-04-25T19:43:09.938Z,6.40
2019-04-25T19:45:41.023Z,7.23
2019-04-25T19:48:13.027Z,8.47
2019-04-25T19:50:43.735Z,6.90
2019-04-25T19:53:14.798Z,6.10
2019-04-25T19:55:45.527Z,9.30
2019-04-25T19:58:17.490Z,11.50
2019-04-25T20:00:51.235Z,10.27
2019-04-25T20:03:26.658Z,10.50
2019-04-25T20:06:01.914Z,9.27
2019-04-25T20:08:39.782Z,6.90
2019-04-25T20:11:28.431Z,12.13
2019-04-25T20:13:59.349Z,8.27
2019-04-25T20:16:31.929Z,9.80
2019-04-25T20:19:02.873Z,9.00
2019-04-25T20:21:34.358Z,12.07
2019-04-25T20:24:06.232Z,9.73
2019-04-25T20:26:36.964Z,9.70
2019-04-25T20:29:07.636Z,8.83
2019-04-25T20:31:38.677Z,9.60
2019-04-25T20:34:09.628Z,8.43
2019-04-25T20:36:40.688Z,9.63
2019-04-25T20:39:11.817Z,7.93
2019-04-25T20:41:43.894Z,8.20
2019-04-25T20:44:14.668Z,7.27
2019-04-25T20:46:46.675Z,9.37
2019-04-25T20:49:17.796Z,8.77
2019-04-25T20:51:48.513Z,8.93
2019-04-25T20:54:20.326Z,7.83
2019-04-25T20:56:51.087Z,7.53
2019-04-25T20:59:21.751Z,7.47
2019-04-25T21:01:53.561Z,9.00
2019-04-25T21:04:26.137Z,8.07
2019-04-25T21:06:57.178Z,9.23
2019-04-25T21:09:28.743Z,12.40
2019-04-25T21:11:59.783Z,8.63
2019-04-25T21:14:35.107Z,9.93
2019-04-25T21:17:09.991Z,10.17
2019-04-25T21:19:45.253Z,8.00
2019-04-25T21:22:16.220Z,11.30
2019-04-25T21:24:47.884Z,10.53
2019-04-25T21:27:18.916Z,11.93
2019-04-25T21:29:49.632Z,9.87
2019-04-25T21:32:22.020Z,8.53
2019-04-25T21:34:53.115Z,10.23
2019-04-25T21:37:24.342Z,11.47
2019-04-25T21:39:57.364Z,9.37
2019-04-25T21:42:42.734Z,9.43
2019-04-25T21:45:15.565Z,9.00
2019-04-25T21:47:46.703Z,9.47
2019-04-25T21:50:17.986Z,10.17
2019-04-25T21:52:49.295Z,13.70
2019-04-25T21:55:20.277Z,10.53
2019-04-25T21:57:51.261Z,11.17
2019-04-25T22:00:40.852Z,10.90
2019-04-25T22:03:14.049Z,10.20
2019-04-25T22:05:45.265Z,9.70
2019-04-25T22:08:15.944Z,10.67
2019-04-25T22:10:47.768Z,11.10
2019-04-25T22:13:19.402Z,10.40
2019-04-25T22:15:50.471Z,11.77
2019-04-25T22:18:21.726Z,9.13
2019-04-25T22:20:52.395Z,10.47
2019-04-25T22:23:23.137Z,11.53
2019-04-25T22:25:54.441Z,7.80
2019-04-25T22:28:25.350Z,10.03
2019-04-25T22:30:59.104Z,10.17
2019-04-25T22:33:31.741Z,9.67
2019-04-25T22:36:06.622Z,9.30
2019-04-25T22:38:37.638Z,9.63
2019-04-25T22:41:08.706Z,9.20
2019-04-25T22:43:41.608Z,11.30
2019-04-25T22:46:25.231Z,10.97
2019-04-25T22:48:50.347Z,9.53
2019-04-25T22:51:21.354Z,10.90
2019-04-25T22:53:53.744Z,9.13
2019-04-25T22:56:24.665Z,8.33
2019-04-25T22:58:55.566Z,10.07
2019-04-25T23:01:28.478Z,8.70
2019-04-25T23:04:01.149Z,9.73
2019-04-25T23:06:33.227Z,10.43
2019-04-25T23:09:06.127Z,8.67
2019-04-25T23:11:38.632Z,9.50
2019-04-25T23:14:10.681Z,10.07
2019-04-25T23:16:41.877Z,11.80
2019-04-25T23:19:13.420Z,9.50
2019-04-25T23:21:44.334Z,9.03
2019-04-25T23:24:16.644Z,9.47
2019-04-25T23:26:58.210Z,10.03
2019-04-25T23:29:28.920Z,9.27
2019-04-25T23:31:59.595Z,7.57
2019-04-25T23:34:30.546Z,10.97
2019-04-25T23:37:01.223Z,11.73
2019-04-25T23:39:32.055Z,11.53
2019-04-25T23:42:02.721Z,9.93
2019-04-25T23:44:33.500Z,9.10
2019-04-25T23:47:04.183Z,11.73
2019-04-25T23:49:35.155Z,10.53
2019-04-25T23:52:07.271Z,12.67
2019-04-25T23:54:38.036Z,10.77
2019-04-25T23:57:09.441Z,9.17
2019-04-25T23:59:40.403Z,8.60
